Список аэропортов
Фактическая погода:

21 января, 12:50
Температура: +13°C (+13.0*)
Ветер: перем. 1 м/с
Давление: *754 мм
несуществ. обл.
Время (МСК)Темп. СВетерВлажностьДавлениеОблачностьОсадки
09:00+12З, 2 м/с93%1004 гПаоблачно
10:00+12З, 2 м/с93%1004 гПаоблачно
11:00+12СЗ, 2 м/с92%1005 гПаоблачно
12:00+14СЗ, 5 м/с83%1005 гПас прояснениями
13:00+15СЗ, 10 м/с65%1005 гПамалооблачно
14:00+16СЗ, 11 м/с63%1004 гПаясно
15:00+15СЗ, 11 м/с56%1004 гПаясно
16:00+15СЗ, 10 м/с53%1005 гПамалооблачно
17:00+15СЗ, 9 м/с52%1005 гПаясно
18:00+15СЗ, 9 м/с47%1006 гПамалооблачно
19:00+14С, 7 м/с43%1007 гПаясно
20:00+13С, 5 м/с46%1008 гПаясно
21:00+12С, 5 м/с49%1009 гПаясно
22:00+11С, 4 м/с51%1010 гПаясно
23:00+10С, 4 м/с52%1011 гПаясно
22 января
00:00+10С, 5 м/с50%1013 гПамалооблачно
01:00+9С, 5 м/с52%1013 гПаоблачно
02:00+9С, 5 м/с51%1013 гПаоблачно
03:00+8С, 4 м/с52%1014 гПаоблачно
04:00+8С, 4 м/с56%1014 гПаоблачно
05:00+7СВ, 2 м/с61%1014 гПаоблачно
06:00+6С, 1 м/с66%1014 гПаоблачно
07:00+6С, 2 м/с70%1015 гПаоблачно
08:00+6С, 2 м/с75%1015 гПас прояснениями
09:00+5СВ, 2 м/с76%1016 гПаоблачно
10:00+5В, 2 м/с76%1016 гПаоблачно
11:00+6СВ, 3 м/с67%1016 гПаоблачно
12:00+8В, 4 м/с59%1016 гПаоблачно
13:00+9СВ, 3 м/с56%1016 гПаоблачно
14:00+10В, 3 м/с53%1016 гПаоблачно
15:00+12СВ, 2 м/с51%1015 гПаоблачно
16:00+12СВ, 1 м/с47%1015 гПас прояснениями
17:00+13В, 1 м/с43%1015 гПамалооблачно
18:00+12Ю, 1 м/с45%1015 гПамалооблачно
19:00+12Ю, 1 м/с49%1014 гПас прояснениями
20:00+10Ю, 1 м/с56%1015 гПаясно
21:00+10ЮВ, 1 м/с59%1014 гПас прояснениями
22:00+9ЮВ, 1 м/с66%1014 гПаясно
23:00+9В, 2 м/с68%1015 гПаоблачно
23 января
00:00+8СВ, 2 м/с74%1015 гПамалооблачно
01:00+8В, 2 м/с71%1014 гПаоблачно
02:00+9В, 3 м/с63%1014 гПаоблачносл. дождь
03:00+10ЮВ, 3 м/с66%1013 гПаоблачносл. дождь
04:00+10В, 2 м/с69%1013 гПаоблачнодождь
05:00+9В, 2 м/с74%1013 гПаоблачносл. дождь
06:00+9В, 3 м/с72%1013 гПаоблачносл. дождь
07:00+9СВ, 3 м/с74%1014 гПаоблачносл. дождь
08:00+9СВ, 3 м/с77%1014 гПаоблачно
09:00+9СВ, 3 м/с79%1015 гПаоблачно